sensor_id;sensor_type;location;lat;lon;timestamp;pressure;altitude;pressure_sealevel;temperature;humidity
65359;BME280;52491;45.900;6.346;2023-05-22T00:00:40;93581.78;;;24.24;40.09
65359;BME280;52491;45.900;6.346;2023-05-22T00:03:05;93590.56;;;24.24;39.82
65359;BME280;52491;45.900;6.346;2023-05-22T00:05:32;93593.22;;;24.24;39.86
65359;BME280;52491;45.900;6.346;2023-05-22T00:08:04;93595.88;;;24.24;40.04
65359;BME280;52491;45.900;6.346;2023-05-22T00:10:30;93599.63;;;24.23;39.88
65359;BME280;52491;45.900;6.346;2023-05-22T00:12:56;93600.69;;;24.22;39.90
65359;BME280;52491;45.900;6.346;2023-05-22T00:15:21;93608.41;;;24.13;39.86
65359;BME280;52491;45.900;6.346;2023-05-22T00:17:47;93606.00;;;24.22;39.96
65359;BME280;52491;45.900;6.346;2023-05-22T00:20:12;93610.28;;;24.08;40.23
65359;BME280;52491;45.900;6.346;2023-05-22T00:22:38;93605.47;;;24.05;40.33
65359;BME280;52491;45.900;6.346;2023-05-22T00:25:04;93610.81;;;24.05;40.23
65359;BME280;52491;45.900;6.346;2023-05-22T00:27:31;93610.56;;;24.01;40.30
65359;BME280;52491;45.900;6.346;2023-05-22T00:29:57;93614.00;;;24.07;39.95
65359;BME280;52491;45.900;6.346;2023-05-22T00:32:24;93613.22;;;24.01;40.15
65359;BME280;52491;45.900;6.346;2023-05-22T00:34:50;93613.47;;;24.15;39.95
65359;BME280;52491;45.900;6.346;2023-05-22T00:37:15;93609.50;;;24.18;39.97
65359;BME280;52491;45.900;6.346;2023-05-22T00:39:41;93596.97;;;24.18;40.02
65359;BME280;52491;45.900;6.346;2023-05-22T00:42:06;93602.28;;;24.03;40.08
65359;BME280;52491;45.900;6.346;2023-05-22T00:44:32;93607.88;;;24.01;40.10
65359;BME280;52491;45.900;6.346;2023-05-22T00:46:57;93609.22;;;24.09;39.84
65359;BME280;52491;45.900;6.346;2023-05-22T00:49:24;93606.28;;;24.16;39.61
65359;BME280;52491;45.900;6.346;2023-05-22T00:51:49;93608.16;;;24.10;39.91
65359;BME280;52491;45.900;6.346;2023-05-22T00:54:15;93607.88;;;24.17;39.60
65359;BME280;52491;45.900;6.346;2023-05-22T00:56:41;93601.78;;;24.06;39.95
65359;BME280;52491;45.900;6.346;2023-05-22T00:59:07;93602.81;;;24.10;39.63
65359;BME280;52491;45.900;6.346;2023-05-22T01:01:33;93593.75;;;24.21;39.30
65359;BME280;52491;45.900;6.346;2023-05-22T01:04:03;93600.41;;;24.24;39.46
65359;BME280;52491;45.900;6.346;2023-05-22T01:06:32;93606.81;;;24.23;39.20
65359;BME280;52491;45.900;6.346;2023-05-22T01:08:57;93612.69;;;24.09;39.47
65359;BME280;52491;45.900;6.346;2023-05-22T01:11:47;93615.09;;;24.06;39.54
65359;BME280;52491;45.900;6.346;2023-05-22T01:19:51;93605.75;;;24.03;39.77
65359;BME280;52491;45.900;6.346;2023-05-22T01:22:39;93600.16;;;24.00;39.93
65359;BME280;52491;45.900;6.346;2023-05-22T01:28:01;93606.56;;;23.99;39.60
65359;BME280;52491;45.900;6.346;2023-05-22T01:33:13;93602.31;;;23.98;39.47
65359;BME280;52491;45.900;6.346;2023-05-22T01:35:44;93599.63;;;23.98;39.50
65359;BME280;52491;45.900;6.346;2023-05-22T01:38:11;93598.81;;;23.97;39.65
65359;BME280;52491;45.900;6.346;2023-05-22T01:40:37;93613.75;;;23.98;39.57
65359;BME280;52491;45.900;6.346;2023-05-22T01:43:03;93610.28;;;23.98;39.45
65359;BME280;52491;45.900;6.346;2023-05-22T01:45:29;93610.28;;;23.98;39.67
65359;BME280;52491;45.900;6.346;2023-05-22T01:47:56;93607.63;;;23.98;39.64
65359;BME280;52491;45.900;6.346;2023-05-22T01:50:22;93599.63;;;23.98;39.65
65359;BME280;52491;45.900;6.346;2023-05-22T01:53:21;93604.69;;;23.99;39.37
65359;BME280;52491;45.900;6.346;2023-05-22T01:55:58;93611.34;;;23.97;39.51
65359;BME280;52491;45.900;6.346;2023-05-22T01:58:46;93607.59;;;24.08;39.52
65359;BME280;52491;45.900;6.346;2023-05-22T02:01:16;93609.22;;;23.99;39.57
65359;BME280;52491;45.900;6.346;2023-05-22T02:03:44;93615.09;;;24.06;39.19
65359;BME280;52491;45.900;6.346;2023-05-22T02:06:12;93614.28;;;24.00;39.51
65359;BME280;52491;45.900;6.346;2023-05-22T02:08:40;93612.16;;;24.07;39.20
65359;BME280;52491;45.900;6.346;2023-05-22T02:11:08;93613.47;;;24.00;39.21
65359;BME280;52491;45.900;6.346;2023-05-22T02:13:34;93607.63;;;23.98;39.16
65359;BME280;52491;45.900;6.346;2023-05-22T02:16:00;93604.44;;;23.96;39.57
65359;BME280;52491;45.900;6.346;2023-05-22T02:18:27;93601.75;;;23.96;39.29
65359;BME280;52491;45.900;6.346;2023-05-22T02:20:59;93594.31;;;23.93;39.19
65359;BME280;52491;45.900;6.346;2023-05-22T02:23:27;93606.84;;;23.92;39.25
65359;BME280;52491;45.900;6.346;2023-05-22T02:25:54;93602.56;;;23.91;39.42
65359;BME280;52491;45.900;6.346;2023-05-22T02:28:20;93611.63;;;23.90;39.34
65359;BME280;52491;45.900;6.346;2023-05-22T02:30:45;93609.75;;;23.90;39.28
65359;BME280;52491;45.900;6.346;2023-05-22T02:33:11;93608.16;;;23.89;39.12
65359;BME280;52491;45.900;6.346;2023-05-22T02:35:37;93610.81;;;23.89;39.57
65359;BME280;52491;45.900;6.346;2023-05-22T02:38:02;93618.81;;;23.89;39.32
65359;BME280;52491;45.900;6.346;2023-05-22T02:40:28;93614.53;;;23.88;39.44
65359;BME280;52491;45.900;6.346;2023-05-22T02:42:53;93611.88;;;23.88;39.20
65359;BME280;52491;45.900;6.346;2023-05-22T02:45:19;93611.06;;;23.88;39.33
65359;BME280;52491;45.900;6.346;2023-05-22T02:47:45;93615.59;;;23.87;39.30
65359;BME280;52491;45.900;6.346;2023-05-22T02:50:10;93611.06;;;23.88;39.05
65359;BME280;52491;45.900;6.346;2023-05-22T02:52:36;93607.38;;;23.89;38.98
65359;BME280;52491;45.900;6.346;2023-05-22T02:55:03;93615.59;;;23.87;39.23
65359;BME280;52491;45.900;6.346;2023-05-22T02:57:29;93608.41;;;23.88;39.12
65359;BME280;52491;45.900;6.346;2023-05-22T02:59:55;93613.47;;;23.89;39.23
65359;BME280;52491;45.900;6.346;2023-05-22T03:02:24;93608.16;;;23.89;38.71
65359;BME280;52491;45.900;6.346;2023-05-22T03:04:52;93606.56;;;23.99;38.97
65359;BME280;52491;45.900;6.346;2023-05-22T03:07:18;93602.03;;;23.89;39.00
65359;BME280;52491;45.900;6.346;2023-05-22T03:09:46;93598.56;;;23.88;38.98
65359;BME280;52491;45.900;6.346;2023-05-22T03:12:11;93598.03;;;23.86;38.85
65359;BME280;52491;45.900;6.346;2023-05-22T03:14:37;93601.50;;;23.87;38.93
65359;BME280;52491;45.900;6.346;2023-05-22T03:17:03;93598.28;;;23.85;39.05
65359;BME280;52491;45.900;6.346;2023-05-22T03:19:28;93599.09;;;23.85;38.79
65359;BME280;52491;45.900;6.346;2023-05-22T03:21:54;93596.44;;;23.85;38.78
65359;BME280;52491;45.900;6.346;2023-05-22T03:24:19;93599.09;;;23.85;39.01
65359;BME280;52491;45.900;6.346;2023-05-22T03:26:45;93607.06;;;23.85;38.87
65359;BME280;52491;45.900;6.346;2023-05-22T03:29:11;93590.31;;;23.85;38.60
65359;BME280;52491;45.900;6.346;2023-05-22T03:31:36;93600.97;;;23.85;38.96
65359;BME280;52491;45.900;6.346;2023-05-22T03:34:02;93598.84;;;23.82;39.03
65359;BME280;52491;45.900;6.346;2023-05-22T03:36:29;93597.25;;;23.81;38.98
65359;BME280;52491;45.900;6.346;2023-05-22T03:38:58;93593.75;;;23.80;38.93
65359;BME280;52491;45.900;6.346;2023-05-22T03:41:23;93595.63;;;23.80;38.95
65359;BME280;52491;45.900;6.346;2023-05-22T03:43:49;93593.50;;;23.82;38.89
65359;BME280;52491;45.900;6.346;2023-05-22T03:46:15;93595.09;;;23.83;38.45
65359;BME280;52491;45.900;6.346;2023-05-22T03:48:40;93603.34;;;23.81;38.80
65359;BME280;52491;45.900;6.346;2023-05-22T03:51:06;93601.75;;;23.80;38.62
65359;BME280;52491;45.900;6.346;2023-05-22T03:53:31;93605.22;;;23.81;38.55
65359;BME280;52491;45.900;6.346;2023-05-22T03:55:57;93605.22;;;23.81;38.96
65359;BME280;52491;45.900;6.346;2023-05-22T03:58:23;93603.34;;;23.76;38.71
65359;BME280;52491;45.900;6.346;2023-05-22T04:00:51;93601.47;;;23.77;38.82
65359;BME280;52491;45.900;6.346;2023-05-22T04:03:17;93610.81;;;23.79;38.53
65359;BME280;52491;45.900;6.346;2023-05-22T04:05:46;93617.75;;;23.75;38.61
65359;BME280;52491;45.900;6.346;2023-05-22T04:08:12;93618.00;;;23.74;38.77
65359;BME280;52491;45.900;6.346;2023-05-22T04:10:37;93610.78;;;23.74;38.67
65359;BME280;52491;45.900;6.346;2023-05-22T04:13:04;93610.00;;;23.74;38.56
65359;BME280;52491;45.900;6.346;2023-05-22T04:15:29;93616.41;;;23.73;38.59
65359;BME280;52491;45.900;6.346;2023-05-22T04:17:58;93614.25;;;23.75;38.70
65359;BME280;52491;45.900;6.346;2023-05-22T04:20:25;93623.06;;;23.75;38.77
65359;BME280;52491;45.900;6.346;2023-05-22T04:22:50;93619.06;;;23.73;38.48
65359;BME280;52491;45.900;6.346;2023-05-22T04:25:16;93622.75;;;23.72;38.70
65359;BME280;52491;45.900;6.346;2023-05-22T04:27:41;93630.75;;;23.72;38.84
65359;BME280;52491;45.900;6.346;2023-05-22T04:30:07;93632.63;;;23.71;38.73
65359;BME280;52491;45.900;6.346;2023-05-22T04:32:35;93631.28;;;23.74;38.60
65359;BME280;52491;45.900;6.346;2023-05-22T04:35:01;93623.31;;;23.74;38.65
65359;BME280;52491;45.900;6.346;2023-05-22T04:37:27;93637.41;;;23.74;38.50
65359;BME280;52491;45.900;6.346;2023-05-22T04:39:53;93635.81;;;23.73;38.38
65359;BME280;52491;45.900;6.346;2023-05-22T04:42:23;93623.06;;;23.75;38.54
65359;BME280;52491;45.900;6.346;2023-05-22T04:44:50;93627.56;;;23.75;38.60
65359;BME280;52491;45.900;6.346;2023-05-22T04:47:17;93627.84;;;23.83;38.50
65359;BME280;52491;45.900;6.346;2023-05-22T04:49:44;93621.19;;;23.96;38.03
65359;BME280;52491;45.900;6.346;2023-05-22T04:52:12;93621.47;;;24.00;37.65
65359;BME280;52491;45.900;6.346;2023-05-22T04:54:38;93625.72;;;24.01;37.58
65359;BME280;52491;45.900;6.346;2023-05-22T04:57:03;93626.53;;;24.01;37.63
65359;BME280;52491;45.900;6.346;2023-05-22T04:59:30;93622.78;;;24.02;37.62
65359;BME280;52491;45.900;6.346;2023-05-22T05:01:58;93620.41;;;24.01;37.62
65359;BME280;52491;45.900;6.346;2023-05-22T05:04:23;93616.66;;;24.02;37.63
65359;BME280;52491;45.900;6.346;2023-05-22T05:06:49;93622.78;;;24.02;37.57
65359;BME280;52491;45.900;6.346;2023-05-22T05:09:16;93620.91;;;24.03;37.76
65359;BME280;52491;45.900;6.346;2023-05-22T05:11:42;93619.34;;;24.02;37.53
65359;BME280;52491;45.900;6.346;2023-05-22T05:14:08;93624.66;;;24.02;37.50
65359;BME280;52491;45.900;6.346;2023-05-22T05:16:33;93624.66;;;24.02;37.57
65359;BME280;52491;45.900;6.346;2023-05-22T05:19:00;93624.66;;;24.02;37.47
65359;BME280;52491;45.900;6.346;2023-05-22T05:21:26;93623.88;;;24.01;37.82
65359;BME280;52491;45.900;6.346;2023-05-22T05:23:52;93619.63;;;24.00;37.75
65359;BME280;52491;45.900;6.346;2023-05-22T05:26:17;93624.13;;;24.00;37.68
65359;BME280;52491;45.900;6.346;2023-05-22T05:28:45;93623.31;;;23.99;37.97
65359;BME280;52491;45.900;6.346;2023-05-22T05:31:12;93622.53;;;23.99;37.91
65359;BME280;52491;45.900;6.346;2023-05-22T05:33:37;93621.47;;;24.00;38.02
65359;BME280;52491;45.900;6.346;2023-05-22T05:36:03;93625.72;;;24.01;37.82
65359;BME280;52491;45.900;6.346;2023-05-22T05:38:29;93623.84;;;23.91;38.38
65359;BME280;52491;45.900;6.346;2023-05-22T05:40:54;93615.88;;;23.96;38.13
65359;BME280;52491;45.900;6.346;2023-05-22T05:43:20;93611.09;;;23.98;38.14
65359;BME280;52491;45.900;6.346;2023-05-22T05:45:45;93607.34;;;23.99;38.06
65359;BME280;52491;45.900;6.346;2023-05-22T05:48:11;93607.34;;;23.99;38.20
65359;BME280;52491;45.900;6.346;2023-05-22T05:50:37;93601.75;;;23.90;38.37
65359;BME280;52491;45.900;6.346;2023-05-22T05:53:02;93608.16;;;23.84;37.89
65359;BME280;52491;45.900;6.346;2023-05-22T05:55:28;93602.81;;;23.84;37.69
65359;BME280;52491;45.900;6.346;2023-05-22T05:57:53;93598.56;;;23.83;38.08
65359;BME280;52491;45.900;6.346;2023-05-22T06:00:19;93609.19;;;23.83;38.06
65359;BME280;52491;45.900;6.346;2023-05-22T06:02:45;93599.38;;;23.84;38.01
65359;BME280;52491;45.900;6.346;2023-05-22T06:05:11;93600.16;;;23.84;38.21
65359;BME280;52491;45.900;6.346;2023-05-22T06:07:37;93598.56;;;23.83;37.87
65359;BME280;52491;45.900;6.346;2023-05-22T06:10:06;93608.16;;;23.84;37.86
65359;BME280;52491;45.900;6.346;2023-05-22T06:12:32;93602.03;;;23.84;37.94
65359;BME280;52491;45.900;6.346;2023-05-22T06:14:58;93608.16;;;23.84;38.26
65359;BME280;52491;45.900;6.346;2023-05-22T06:17:23;93605.75;;;23.83;38.26
65359;BME280;52491;45.900;6.346;2023-05-22T06:19:49;93610.81;;;23.84;38.17
65359;BME280;52491;45.900;6.346;2023-05-22T06:22:15;93612.69;;;23.84;38.32
65359;BME280;52491;45.900;6.346;2023-05-22T06:24:40;93610.03;;;23.84;37.97
65359;BME280;52491;45.900;6.346;2023-05-22T06:27:06;93605.75;;;23.83;38.20
65359;BME280;52491;45.900;6.346;2023-05-22T06:29:32;93601.22;;;23.83;38.08
65359;BME280;52491;45.900;6.346;2023-05-22T06:31:57;93610.81;;;23.84;38.40
65359;BME280;52491;45.900;6.346;2023-05-22T06:34:23;93606.28;;;23.85;38.31
65359;BME280;52491;45.900;6.346;2023-05-22T06:36:49;93599.38;;;23.84;38.12
65359;BME280;52491;45.900;6.346;2023-05-22T06:39:17;93596.72;;;23.84;38.12
65359;BME280;52491;45.900;6.346;2023-05-22T06:41:43;93595.63;;;23.85;38.31
65359;BME280;52491;45.900;6.346;2023-05-22T06:44:08;93589.50;;;23.84;38.56
65359;BME280;52491;45.900;6.346;2023-05-22T06:46:34;93595.63;;;23.85;38.61
65359;BME280;52491;45.900;6.346;2023-05-22T06:49:00;93589.50;;;23.84;38.58
65359;BME280;52491;45.900;6.346;2023-05-22T06:51:26;93597.50;;;23.84;38.66
65359;BME280;52491;45.900;6.346;2023-05-22T06:53:51;93601.75;;;23.85;38.44
65359;BME280;52491;45.900;6.346;2023-05-22T06:56:17;93598.03;;;23.86;38.76
65359;BME280;52491;45.900;6.346;2023-05-22T06:58:43;93596.44;;;23.85;38.79
65359;BME280;52491;45.900;6.346;2023-05-22T07:01:08;93600.72;;;23.86;38.56
65359;BME280;52491;45.900;6.346;2023-05-22T07:03:34;93607.88;;;23.86;38.95
65359;BME280;52491;45.900;6.346;2023-05-22T07:06:00;93606.03;;;23.86;38.79
65359;BME280;52491;45.900;6.346;2023-05-22T07:08:26;93599.09;;;23.85;39.00
65359;BME280;52491;45.900;6.346;2023-05-22T07:10:51;93602.53;;;23.86;39.08
65359;BME280;52491;45.900;6.346;2023-05-22T07:13:17;93600.44;;;23.88;38.77
65359;BME280;52491;45.900;6.346;2023-05-22T07:15:43;93599.63;;;23.87;39.01
65359;BME280;52491;45.900;6.346;2023-05-22T07:18:08;93604.97;;;23.87;39.29
65359;BME280;52491;45.900;6.346;2023-05-22T07:20:35;93609.50;;;23.87;38.79
65359;BME280;52491;45.900;6.346;2023-05-22T07:23:01;93606.81;;;23.87;38.87
65359;BME280;52491;45.900;6.346;2023-05-22T07:25:27;93602.28;;;23.87;39.12
65359;BME280;52491;45.900;6.346;2023-05-22T07:27:52;93603.38;;;23.86;39.08
65359;BME280;52491;45.900;6.346;2023-05-22T07:30:18;93607.63;;;23.87;38.95
65359;BME280;52491;45.900;6.346;2023-05-22T07:32:44;93598.56;;;23.88;39.21
65359;BME280;52491;45.900;6.346;2023-05-22T07:35:09;93603.88;;;23.88;39.21
65359;BME280;52491;45.900;6.346;2023-05-22T07:37:36;93602.03;;;23.89;38.97
65359;BME280;52491;45.900;6.346;2023-05-22T07:40:05;93600.16;;;23.89;38.91
65359;BME280;52491;45.900;6.346;2023-05-22T07:42:31;93591.41;;;23.89;39.20
65359;BME280;52491;45.900;6.346;2023-05-22T07:44:57;93587.91;;;23.88;38.90
65359;BME280;52491;45.900;6.346;2023-05-22T07:47:22;93599.09;;;23.90;38.98
65359;BME280;52491;45.900;6.346;2023-05-22T07:49:48;93589.78;;;23.88;38.88
65359;BME280;52491;45.900;6.346;2023-05-22T07:52:14;93586.84;;;23.89;39.10
65359;BME280;52491;45.900;6.346;2023-05-22T07:54:39;93586.84;;;23.89;39.08
65359;BME280;52491;45.900;6.346;2023-05-22T07:57:05;93585.00;;;23.90;39.04
65359;BME280;52491;45.900;6.346;2023-05-22T07:59:32;93589.53;;;23.89;39.26
65359;BME280;52491;45.900;6.346;2023-05-22T08:01:59;93582.31;;;23.90;39.04
65359;BME280;52491;45.900;6.346;2023-05-22T08:04:25;93583.13;;;23.90;38.87
65359;BME280;52491;45.900;6.346;2023-05-22T08:06:51;93584.72;;;23.92;39.14
65359;BME280;52491;45.900;6.346;2023-05-22T08:09:17;93574.06;;;23.92;39.16
65359;BME280;52491;45.900;6.346;2023-05-22T08:11:42;93581.00;;;23.93;38.92
65359;BME280;52491;45.900;6.346;2023-05-22T08:14:08;93572.22;;;23.92;38.98
65359;BME280;52491;45.900;6.346;2023-05-22T08:16:34;93567.69;;;23.93;39.27
65359;BME280;52491;45.900;6.346;2023-05-22T08:18:59;93572.22;;;23.92;39.31
65359;BME280;52491;45.900;6.346;2023-05-22T08:21:25;93566.91;;;23.92;39.19
65359;BME280;52491;45.900;6.346;2023-05-22T08:23:51;93560.50;;;23.93;39.16
65359;BME280;52491;45.900;6.346;2023-05-22T08:26:16;93555.16;;;23.93;38.93
65359;BME280;52491;45.900;6.346;2023-05-22T08:28:42;93561.28;;;23.94;39.20
65359;BME280;52491;45.900;6.346;2023-05-22T08:31:11;93560.25;;;23.95;39.25
65359;BME280;52491;45.900;6.346;2023-05-22T08:33:37;93545.31;;;23.94;39.20
65359;BME280;52491;45.900;6.346;2023-05-22T08:36:04;93546.94;;;23.95;39.25
65359;BME280;52491;45.900;6.346;2023-05-22T08:38:30;93543.19;;;23.96;38.92
65359;BME280;52491;45.900;6.346;2023-05-22T08:40:56;93544.78;;;23.97;39.04
65359;BME280;52491;45.900;6.346;2023-05-22T08:43:22;93543.19;;;23.96;39.49
65359;BME280;52491;45.900;6.346;2023-05-22T08:45:51;93541.31;;;23.96;39.30
65359;BME280;52491;45.900;6.346;2023-05-22T08:48:22;93532.53;;;23.96;39.14
65359;BME280;52491;45.900;6.346;2023-05-22T08:50:53;93534.13;;;23.97;39.37
65359;BME280;52491;45.900;6.346;2023-05-22T08:53:22;93531.75;;;23.95;39.12
65359;BME280;52491;45.900;6.346;2023-05-22T08:55:50;93529.88;;;23.96;39.32
65359;BME280;52491;45.900;6.346;2023-05-22T08:58:16;93533.34;;;23.96;39.26
65359;BME280;52491;45.900;6.346;2023-05-22T09:00:43;93529.88;;;23.96;39.30
65359;BME280;52491;45.900;6.346;2023-05-22T09:03:09;93536.00;;;23.96;39.57
65359;BME280;52491;45.900;6.346;2023-05-22T09:05:40;93541.59;;;23.95;39.42
65359;BME280;52491;45.900;6.346;2023-05-22T09:08:06;93540.53;;;23.96;39.54
65359;BME280;52491;45.900;6.346;2023-05-22T09:10:35;93536.00;;;23.96;39.36
65359;BME280;52491;45.900;6.346;2023-05-22T09:13:05;93540.53;;;23.96;39.41
65359;BME280;52491;45.900;6.346;2023-05-22T09:15:35;93532.53;;;23.96;39.61
65359;BME280;52491;45.900;6.346;2023-05-22T09:18:04;93533.34;;;23.96;39.47
65359;BME280;52491;45.900;6.346;2023-05-22T09:20:37;93534.13;;;23.97;39.66
65359;BME280;52491;45.900;6.346;2023-05-22T09:23:12;93531.47;;;23.97;39.71
65359;BME280;52491;45.900;6.346;2023-05-22T09:25:44;93536.28;;;23.95;39.65
65359;BME280;52491;45.900;6.346;2023-05-22T09:28:11;93539.44;;;23.97;39.41
65359;BME280;52491;45.900;6.346;2023-05-22T09:30:36;93533.34;;;23.96;39.68
65359;BME280;52491;45.900;6.346;2023-05-22T09:33:03;93542.13;;;23.97;39.42
65359;BME280;52491;45.900;6.346;2023-05-22T09:35:32;93534.91;;;23.97;39.45
65359;BME280;52491;45.900;6.346;2023-05-22T09:37:57;93532.53;;;23.96;39.48
65359;BME280;52491;45.900;6.346;2023-05-22T09:40:26;93526.94;;;23.97;39.48
65359;BME280;52491;45.900;6.346;2023-05-22T09:42:52;93521.59;;;23.97;39.60
65359;BME280;52491;45.900;6.346;2023-05-22T09:45:21;93520.81;;;23.97;39.68
65359;BME280;52491;45.900;6.346;2023-05-22T09:47:50;93532.25;;;23.97;39.80
65359;BME280;52491;45.900;6.346;2023-05-22T09:50:16;93536.78;;;23.97;39.40
65359;BME280;52491;45.900;6.346;2023-05-22T09:52:43;93526.13;;;23.97;39.60
65359;BME280;52491;45.900;6.346;2023-05-22T09:55:09;93525.09;;;23.98;39.69
65359;BME280;52491;45.900;6.346;2023-05-22T09:57:41;93520.56;;;23.98;39.76
65359;BME280;52491;45.900;6.346;2023-05-22T10:00:12;93524.00;;;23.99;39.42
65359;BME280;52491;45.900;6.346;2023-05-22T10:02:53;93525.59;;;24.00;39.17
65359;BME280;52491;45.900;6.346;2023-05-22T10:05:24;93523.22;;;23.98;39.20
65359;BME280;52491;45.900;6.346;2023-05-22T10:08:02;93526.69;;;23.99;38.96
65359;BME280;52491;45.900;6.346;2023-05-22T10:10:29;93530.13;;;23.99;39.36
65359;BME280;52491;45.900;6.346;2023-05-22T10:13:03;93525.59;;;24.00;39.17
65359;BME280;52491;45.900;6.346;2023-05-22T10:15:29;93530.91;;;24.00;39.27
65359;BME280;52491;45.900;6.346;2023-05-22T10:17:55;93528.53;;;23.98;39.24
65359;BME280;52491;45.900;6.346;2023-05-22T10:20:23;93522.94;;;24.00;39.25
65359;BME280;52491;45.900;6.346;2023-05-22T10:22:49;93527.47;;;23.99;39.12
65359;BME280;52491;45.900;6.346;2023-05-22T10:25:16;93526.41;;;24.00;39.11
65359;BME280;52491;45.900;6.346;2023-05-22T10:27:42;93531.22;;;23.98;39.37
65359;BME280;52491;45.900;6.346;2023-05-22T10:30:19;93523.22;;;23.98;39.45
65359;BME280;52491;45.900;6.346;2023-05-22T10:32:59;93526.69;;;23.99;39.43
65359;BME280;52491;45.900;6.346;2023-05-22T10:35:50;93519.75;;;23.98;39.37
65359;BME280;52491;45.900;6.346;2023-05-22T10:41:04;93516.56;;;23.96;39.63
65359;BME280;52491;45.900;6.346;2023-05-22T10:43:31;93518.16;;;23.97;39.52
65359;BME280;52491;45.900;6.346;2023-05-22T10:46:05;93518.16;;;23.97;39.61
65359;BME280;52491;45.900;6.346;2023-05-22T10:48:38;93514.44;;;23.98;39.77
65359;BME280;52491;45.900;6.346;2023-05-22T10:51:05;93512.03;;;23.96;40.08
65359;BME280;52491;45.900;6.346;2023-05-22T10:53:32;93505.63;;;23.97;39.76
65359;BME280;52491;45.900;6.346;2023-05-22T10:55:58;93515.22;;;23.98;39.76
65359;BME280;52491;45.900;6.346;2023-05-22T10:58:30;93502.47;;;24.00;39.63
65359;BME280;52491;45.900;6.346;2023-05-22T11:01:16;93507.78;;;24.00;39.92
65359;BME280;52491;45.900;6.346;2023-05-22T11:08:57;93506.16;;;23.99;39.96
65359;BME280;52491;45.900;6.346;2023-05-22T11:11:26;93508.56;;;24.01;40.30
65359;BME280;52491;45.900;6.346;2023-05-22T11:13:56;93509.63;;;24.00;40.14
65359;BME280;52491;45.900;6.346;2023-05-22T11:16:31;93510.16;;;24.02;39.90
65359;BME280;52491;45.900;6.346;2023-05-22T11:19:07;93509.09;;;24.03;39.84
65359;BME280;52491;45.900;6.346;2023-05-22T11:21:42;93509.63;;;24.05;40.11
65359;BME280;52491;45.900;6.346;2023-05-22T11:24:09;93506.41;;;24.03;40.36
65359;BME280;52491;45.900;6.346;2023-05-22T11:26:35;93511.75;;;24.03;40.09
65359;BME280;52491;45.900;6.346;2023-05-22T11:29:01;93501.09;;;24.03;40.23
65359;BME280;52491;45.900;6.346;2023-05-22T11:31:31;93504.84;;;24.02;40.30
65359;BME280;52491;45.900;6.346;2023-05-22T11:33:57;93505.91;;;24.01;40.49
65359;BME280;52491;45.900;6.346;2023-05-22T11:36:23;93506.16;;;24.09;40.28
65359;BME280;52491;45.900;6.346;2023-05-22T11:38:49;93507.19;;;24.19;40.51
65359;BME280;52491;45.900;6.346;2023-05-22T11:41:14;93508.53;;;24.21;40.26
65359;BME280;52491;45.900;6.346;2023-05-22T11:43:43;93510.94;;;24.23;40.15
65359;BME280;52491;45.900;6.346;2023-05-22T11:46:09;93509.06;;;24.23;40.05
65359;BME280;52491;45.900;6.346;2023-05-22T11:48:39;93504.25;;;24.25;40.28
65359;BME280;52491;45.900;6.346;2023-05-22T11:51:05;93507.97;;;24.24;40.00
65359;BME280;52491;45.900;6.346;2023-05-22T11:53:31;93497.06;;;24.26;40.22
65359;BME280;52491;45.900;6.346;2023-05-22T11:56:04;93505.31;;;24.29;40.29
65359;BME280;52491;45.900;6.346;2023-05-22T11:58:30;93503.72;;;24.28;40.30
65359;BME280;52491;45.900;6.346;2023-05-22T12:00:59;93506.88;;;24.30;40.26
65359;BME280;52491;45.900;6.346;2023-05-22T12:03:25;93505.31;;;24.29;40.51
65359;BME280;52491;45.900;6.346;2023-05-22T12:05:51;93506.88;;;24.30;40.19
65359;BME280;52491;45.900;6.346;2023-05-22T12:08:18;93510.88;;;24.33;40.45
65359;BME280;52491;45.900;6.346;2023-05-22T12:10:48;93502.63;;;24.34;39.96
65359;BME280;52491;45.900;6.346;2023-05-22T12:13:14;93502.88;;;24.33;40.21
65359;BME280;52491;45.900;6.346;2023-05-22T12:15:39;93499.19;;;24.34;40.15
65359;BME280;52491;45.900;6.346;2023-05-22T12:18:08;93493.84;;;24.34;40.39
65359;BME280;52491;45.900;6.346;2023-05-22T12:20:34;93486.91;;;24.33;40.05
65359;BME280;52491;45.900;6.346;2023-05-22T12:22:59;93482.38;;;24.33;40.67
65359;BME280;52491;45.900;6.346;2023-05-22T12:25:32;93489.03;;;24.36;40.34
65359;BME280;52491;45.900;6.346;2023-05-22T12:28:00;93481.31;;;24.34;40.29
65359;BME280;52491;45.900;6.346;2023-05-22T12:30:25;93491.97;;;24.34;40.51
65359;BME280;52491;45.900;6.346;2023-05-22T12:32:51;93484.00;;;24.34;40.29
65359;BME280;52491;45.900;6.346;2023-05-22T12:35:17;93483.69;;;24.36;40.44
65359;BME280;52491;45.900;6.346;2023-05-22T12:37:47;93486.38;;;24.36;40.20
65359;BME280;52491;45.900;6.346;2023-05-22T12:40:14;93481.03;;;24.36;40.61
65359;BME280;52491;45.900;6.346;2023-05-22T12:42:40;93486.91;;;24.38;40.67
65359;BME280;52491;45.900;6.346;2023-05-22T12:45:06;93477.03;;;24.39;40.55
65359;BME280;52491;45.900;6.346;2023-05-22T12:47:32;93478.34;;;24.41;40.89
65359;BME280;52491;45.900;6.346;2023-05-22T12:49:57;93479.16;;;24.42;40.61
65359;BME280;52491;45.900;6.346;2023-05-22T12:52:23;93470.38;;;24.41;40.59
65359;BME280;52491;45.900;6.346;2023-05-22T12:54:49;93470.09;;;24.43;40.49
65359;BME280;52491;45.900;6.346;2023-05-22T12:57:15;93466.63;;;24.42;40.52
65359;BME280;52491;45.900;6.346;2023-05-22T12:59:41;93470.94;;;24.43;40.15
65359;BME280;52491;45.900;6.346;2023-05-22T13:02:08;93463.72;;;24.44;40.53
65359;BME280;52491;45.900;6.346;2023-05-22T13:04:34;93461.84;;;24.44;40.19
65359;BME280;52491;45.900;6.346;2023-05-22T13:06:59;93462.66;;;24.45;40.24
65359;BME280;52491;45.900;6.346;2023-05-22T13:09:25;93459.19;;;24.44;40.36
65359;BME280;52491;45.900;6.346;2023-05-22T13:11:51;93458.41;;;24.44;40.19
65359;BME280;52491;45.900;6.346;2023-05-22T13:14:16;93461.06;;;24.44;40.43
65359;BME280;52491;45.900;6.346;2023-05-22T13:16:42;93457.31;;;24.45;40.07
65359;BME280;52491;45.900;6.346;2023-05-22T13:19:09;93458.94;;;24.46;40.25